sensor_id;sensor_type;location;lat;lon;timestamp;P1;durP1;ratioP1;P2;durP2;ratioP2
21661;SDS011;10992;48.170;8.596;2023-04-26T00:00:41;5.72;;;5.07;;
21661;SDS011;10992;48.170;8.596;2023-04-26T00:03:09;6.75;;;5.20;;
21661;SDS011;10992;48.170;8.596;2023-04-26T00:05:36;6.70;;;4.95;;
21661;SDS011;10992;48.170;8.596;2023-04-26T00:08:03;6.85;;;4.93;;
21661;SDS011;10992;48.170;8.596;2023-04-26T00:10:31;5.53;;;4.35;;
21661;SDS011;10992;48.170;8.596;2023-04-26T00:12:57;4.97;;;4.47;;
21661;SDS011;10992;48.170;8.596;2023-04-26T00:15:24;5.10;;;4.60;;
21661;SDS011;10992;48.170;8.596;2023-04-26T00:17:51;10.88;;;8.52;;
21661;SDS011;10992;48.170;8.596;2023-04-26T00:20:18;40.63;;;27.13;;
21661;SDS011;10992;48.170;8.596;2023-04-26T00:22:45;7.85;;;6.38;;
21661;SDS011;10992;48.170;8.596;2023-04-26T00:25:12;10.25;;;6.78;;
21661;SDS011;10992;48.170;8.596;2023-04-26T00:27:39;9.88;;;6.85;;
21661;SDS011;10992;48.170;8.596;2023-04-26T00:30:06;11.38;;;6.93;;
21661;SDS011;10992;48.170;8.596;2023-04-26T00:32:34;9.52;;;7.38;;
21661;SDS011;10992;48.170;8.596;2023-04-26T00:35:04;8.40;;;7.18;;
21661;SDS011;10992;48.170;8.596;2023-04-26T00:37:31;10.10;;;7.43;;
21661;SDS011;10992;48.170;8.596;2023-04-26T00:39:59;7.93;;;7.07;;
21661;SDS011;10992;48.170;8.596;2023-04-26T00:42:25;9.27;;;7.38;;
21661;SDS011;10992;48.170;8.596;2023-04-26T00:44:52;11.65;;;7.45;;
21661;SDS011;10992;48.170;8.596;2023-04-26T00:47:23;11.98;;;8.32;;
21661;SDS011;10992;48.170;8.596;2023-04-26T00:49:51;11.93;;;8.65;;
21661;SDS011;10992;48.170;8.596;2023-04-26T00:52:18;12.05;;;9.70;;
21661;SDS011;10992;48.170;8.596;2023-04-26T00:54:47;11.85;;;10.05;;
21661;SDS011;10992;48.170;8.596;2023-04-26T00:57:14;13.05;;;9.80;;
21661;SDS011;10992;48.170;8.596;2023-04-26T00:59:41;14.25;;;10.45;;
21661;SDS011;10992;48.170;8.596;2023-04-26T01:02:08;16.77;;;11.35;;
21661;SDS011;10992;48.170;8.596;2023-04-26T01:04:35;14.00;;;10.00;;
21661;SDS011;10992;48.170;8.596;2023-04-26T01:07:02;15.02;;;10.00;;
21661;SDS011;10992;48.170;8.596;2023-04-26T01:09:31;16.73;;;9.35;;
21661;SDS011;10992;48.170;8.596;2023-04-26T01:11:59;13.15;;;9.75;;
21661;SDS011;10992;48.170;8.596;2023-04-26T01:14:26;12.63;;;9.77;;
21661;SDS011;10992;48.170;8.596;2023-04-26T01:16:55;13.90;;;9.75;;
21661;SDS011;10992;48.170;8.596;2023-04-26T01:19:22;16.63;;;10.75;;
21661;SDS011;10992;48.170;8.596;2023-04-26T01:21:50;16.73;;;11.90;;
21661;SDS011;10992;48.170;8.596;2023-04-26T01:24:19;18.13;;;12.48;;
21661;SDS011;10992;48.170;8.596;2023-04-26T01:26:46;18.58;;;11.95;;
21661;SDS011;10992;48.170;8.596;2023-04-26T01:29:17;17.73;;;10.98;;
21661;SDS011;10992;48.170;8.596;2023-04-26T01:31:45;19.02;;;10.90;;
21661;SDS011;10992;48.170;8.596;2023-04-26T01:34:13;18.08;;;10.63;;
21661;SDS011;10992;48.170;8.596;2023-04-26T01:36:40;16.17;;;11.02;;
21661;SDS011;10992;48.170;8.596;2023-04-26T01:39:08;16.13;;;10.73;;
21661;SDS011;10992;48.170;8.596;2023-04-26T01:41:34;17.75;;;11.10;;
21661;SDS011;10992;48.170;8.596;2023-04-26T01:44:02;16.27;;;11.63;;
21661;SDS011;10992;48.170;8.596;2023-04-26T01:46:29;17.42;;;11.05;;
21661;SDS011;10992;48.170;8.596;2023-04-26T01:48:56;18.20;;;11.35;;
21661;SDS011;10992;48.170;8.596;2023-04-26T01:51:23;17.95;;;11.52;;
21661;SDS011;10992;48.170;8.596;2023-04-26T01:53:50;16.48;;;11.25;;
21661;SDS011;10992;48.170;8.596;2023-04-26T01:56:17;17.35;;;11.63;;
21661;SDS011;10992;48.170;8.596;2023-04-26T01:58:45;19.45;;;12.57;;
21661;SDS011;10992;48.170;8.596;2023-04-26T02:01:12;14.80;;;10.45;;
21661;SDS011;10992;48.170;8.596;2023-04-26T02:03:39;20.40;;;11.93;;
21661;SDS011;10992;48.170;8.596;2023-04-26T02:06:06;21.02;;;11.05;;
21661;SDS011;10992;48.170;8.596;2023-04-26T02:08:33;16.05;;;9.32;;
21661;SDS011;10992;48.170;8.596;2023-04-26T02:11:01;16.25;;;10.02;;
21661;SDS011;10992;48.170;8.596;2023-04-26T02:13:28;18.15;;;10.05;;
21661;SDS011;10992;48.170;8.596;2023-04-26T02:15:58;15.65;;;9.77;;
21661;SDS011;10992;48.170;8.596;2023-04-26T02:18:25;21.10;;;11.63;;
21661;SDS011;10992;48.170;8.596;2023-04-26T02:20:52;19.73;;;11.13;;
21661;SDS011;10992;48.170;8.596;2023-04-26T02:23:19;17.95;;;10.90;;
21661;SDS011;10992;48.170;8.596;2023-04-26T02:25:47;17.55;;;10.52;;
21661;SDS011;10992;48.170;8.596;2023-04-26T02:28:15;16.80;;;11.95;;
21661;SDS011;10992;48.170;8.596;2023-04-26T02:30:42;14.40;;;11.05;;
21661;SDS011;10992;48.170;8.596;2023-04-26T02:33:10;16.95;;;12.02;;
21661;SDS011;10992;48.170;8.596;2023-04-26T02:35:37;19.10;;;12.27;;
21661;SDS011;10992;48.170;8.596;2023-04-26T02:38:04;15.73;;;11.52;;
21661;SDS011;10992;48.170;8.596;2023-04-26T02:40:31;16.38;;;11.40;;
21661;SDS011;10992;48.170;8.596;2023-04-26T02:42:58;17.67;;;12.23;;
21661;SDS011;10992;48.170;8.596;2023-04-26T02:45:25;16.92;;;11.77;;
21661;SDS011;10992;48.170;8.596;2023-04-26T02:47:52;14.05;;;9.48;;
21661;SDS011;10992;48.170;8.596;2023-04-26T02:50:19;17.20;;;11.60;;
21661;SDS011;10992;48.170;8.596;2023-04-26T02:52:47;16.13;;;10.57;;
21661;SDS011;10992;48.170;8.596;2023-04-26T02:55:14;18.75;;;10.95;;
21661;SDS011;10992;48.170;8.596;2023-04-26T02:57:42;15.40;;;11.07;;
21661;SDS011;10992;48.170;8.596;2023-04-26T03:00:11;17.90;;;10.10;;
21661;SDS011;10992;48.170;8.596;2023-04-26T03:02:39;15.68;;;9.65;;
21661;SDS011;10992;48.170;8.596;2023-04-26T03:05:09;13.48;;;9.57;;
21661;SDS011;10992;48.170;8.596;2023-04-26T03:07:36;18.58;;;9.45;;
21661;SDS011;10992;48.170;8.596;2023-04-26T03:10:04;12.68;;;8.82;;
21661;SDS011;10992;48.170;8.596;2023-04-26T03:12:32;15.80;;;9.27;;
21661;SDS011;10992;48.170;8.596;2023-04-26T03:15:00;18.05;;;9.82;;
21661;SDS011;10992;48.170;8.596;2023-04-26T03:17:29;18.75;;;9.60;;
21661;SDS011;10992;48.170;8.596;2023-04-26T03:19:57;16.25;;;9.95;;
21661;SDS011;10992;48.170;8.596;2023-04-26T03:22:26;15.45;;;10.00;;
21661;SDS011;10992;48.170;8.596;2023-04-26T03:24:53;16.48;;;9.65;;
21661;SDS011;10992;48.170;8.596;2023-04-26T03:27:20;17.17;;;10.15;;
21661;SDS011;10992;48.170;8.596;2023-04-26T03:29:50;14.18;;;9.43;;
21661;SDS011;10992;48.170;8.596;2023-04-26T03:32:17;16.02;;;10.32;;
21661;SDS011;10992;48.170;8.596;2023-04-26T03:34:44;16.45;;;11.13;;
21661;SDS011;10992;48.170;8.596;2023-04-26T03:37:13;15.48;;;11.45;;
21661;SDS011;10992;48.170;8.596;2023-04-26T03:39:43;22.33;;;12.00;;
21661;SDS011;10992;48.170;8.596;2023-04-26T03:42:10;19.58;;;10.40;;
21661;SDS011;10992;48.170;8.596;2023-04-26T03:44:38;15.85;;;10.95;;
21661;SDS011;10992;48.170;8.596;2023-04-26T03:47:05;24.85;;;12.18;;
21661;SDS011;10992;48.170;8.596;2023-04-26T03:49:32;18.63;;;12.20;;
21661;SDS011;10992;48.170;8.596;2023-04-26T03:51:58;19.63;;;11.93;;
21661;SDS011;10992;48.170;8.596;2023-04-26T03:54:25;18.48;;;12.27;;
21661;SDS011;10992;48.170;8.596;2023-04-26T03:56:55;19.90;;;11.45;;
21661;SDS011;10992;48.170;8.596;2023-04-26T03:59:23;21.35;;;12.77;;
21661;SDS011;10992;48.170;8.596;2023-04-26T04:01:50;20.13;;;12.88;;
21661;SDS011;10992;48.170;8.596;2023-04-26T04:04:17;19.30;;;11.90;;
21661;SDS011;10992;48.170;8.596;2023-04-26T04:06:45;21.50;;;12.20;;
21661;SDS011;10992;48.170;8.596;2023-04-26T04:09:12;19.95;;;12.57;;
21661;SDS011;10992;48.170;8.596;2023-04-26T04:11:39;17.23;;;11.88;;
21661;SDS011;10992;48.170;8.596;2023-04-26T04:14:06;20.02;;;11.82;;
21661;SDS011;10992;48.170;8.596;2023-04-26T04:16:33;20.95;;;12.70;;
21661;SDS011;10992;48.170;8.596;2023-04-26T04:19:00;21.33;;;12.13;;
21661;SDS011;10992;48.170;8.596;2023-04-26T04:21:26;17.58;;;12.38;;
21661;SDS011;10992;48.170;8.596;2023-04-26T04:23:56;18.70;;;12.52;;
21661;SDS011;10992;48.170;8.596;2023-04-26T04:26:23;17.80;;;12.90;;
21661;SDS011;10992;48.170;8.596;2023-04-26T04:28:51;21.30;;;12.98;;
21661;SDS011;10992;48.170;8.596;2023-04-26T04:31:19;20.10;;;13.35;;
21661;SDS011;10992;48.170;8.596;2023-04-26T04:33:47;20.38;;;13.13;;
21661;SDS011;10992;48.170;8.596;2023-04-26T04:36:14;17.67;;;12.50;;
21661;SDS011;10992;48.170;8.596;2023-04-26T04:38:43;19.75;;;13.55;;
21661;SDS011;10992;48.170;8.596;2023-04-26T04:41:11;18.42;;;13.45;;
21661;SDS011;10992;48.170;8.596;2023-04-26T04:43:39;18.73;;;11.90;;
21661;SDS011;10992;48.170;8.596;2023-04-26T04:46:06;19.88;;;13.30;;
21661;SDS011;10992;48.170;8.596;2023-04-26T04:48:34;18.33;;;13.65;;
21661;SDS011;10992;48.170;8.596;2023-04-26T04:51:03;22.48;;;14.27;;
21661;SDS011;10992;48.170;8.596;2023-04-26T04:53:31;22.45;;;14.63;;
21661;SDS011;10992;48.170;8.596;2023-04-26T04:55:59;21.55;;;14.30;;
21661;SDS011;10992;48.170;8.596;2023-04-26T04:58:26;23.88;;;13.98;;
21661;SDS011;10992;48.170;8.596;2023-04-26T05:00:53;21.42;;;14.48;;
21661;SDS011;10992;48.170;8.596;2023-04-26T05:03:27;18.10;;;13.20;;
21661;SDS011;10992;48.170;8.596;2023-04-26T05:05:54;19.73;;;14.27;;
21661;SDS011;10992;48.170;8.596;2023-04-26T05:08:21;24.23;;;13.73;;
21661;SDS011;10992;48.170;8.596;2023-04-26T05:10:48;18.85;;;12.93;;
21661;SDS011;10992;48.170;8.596;2023-04-26T05:13:15;17.13;;;13.00;;
21661;SDS011;10992;48.170;8.596;2023-04-26T05:15:43;18.50;;;12.82;;
21661;SDS011;10992;48.170;8.596;2023-04-26T05:18:10;18.42;;;12.15;;
21661;SDS011;10992;48.170;8.596;2023-04-26T05:20:38;16.80;;;11.52;;
21661;SDS011;10992;48.170;8.596;2023-04-26T05:23:05;16.58;;;11.32;;
21661;SDS011;10992;48.170;8.596;2023-04-26T05:25:35;13.35;;;10.23;;
21661;SDS011;10992;48.170;8.596;2023-04-26T05:28:22;17.00;;;11.20;;
21661;SDS011;10992;48.170;8.596;2023-04-26T05:31:16;13.30;;;9.45;;
21661;SDS011;10992;48.170;8.596;2023-04-26T05:34:03;13.98;;;9.05;;
21661;SDS011;10992;48.170;8.596;2023-04-26T05:36:34;12.20;;;7.85;;
21661;SDS011;10992;48.170;8.596;2023-04-26T05:39:02;12.82;;;8.82;;
21661;SDS011;10992;48.170;8.596;2023-04-26T05:41:31;18.98;;;10.57;;
21661;SDS011;10992;48.170;8.596;2023-04-26T05:43:58;15.05;;;9.07;;
21661;SDS011;10992;48.170;8.596;2023-04-26T05:46:25;10.55;;;7.65;;
21661;SDS011;10992;48.170;8.596;2023-04-26T05:48:53;15.35;;;7.22;;
21661;SDS011;10992;48.170;8.596;2023-04-26T05:51:20;10.65;;;7.78;;
21661;SDS011;10992;48.170;8.596;2023-04-26T05:53:48;10.15;;;7.18;;
21661;SDS011;10992;48.170;8.596;2023-04-26T05:56:15;10.07;;;7.55;;
21661;SDS011;10992;48.170;8.596;2023-04-26T05:58:42;12.80;;;7.68;;
21661;SDS011;10992;48.170;8.596;2023-04-26T06:01:09;10.05;;;7.28;;
21661;SDS011;10992;48.170;8.596;2023-04-26T06:03:37;11.70;;;6.55;;
21661;SDS011;10992;48.170;8.596;2023-04-26T06:06:05;10.52;;;7.57;;
21661;SDS011;10992;48.170;8.596;2023-04-26T06:08:35;8.15;;;6.28;;
21661;SDS011;10992;48.170;8.596;2023-04-26T06:11:02;10.25;;;7.38;;
21661;SDS011;10992;48.170;8.596;2023-04-26T06:13:29;10.25;;;6.63;;
21661;SDS011;10992;48.170;8.596;2023-04-26T06:15:56;10.38;;;7.13;;
21661;SDS011;10992;48.170;8.596;2023-04-26T06:18:24;10.02;;;6.55;;
21661;SDS011;10992;48.170;8.596;2023-04-26T06:20:51;8.50;;;5.65;;
21661;SDS011;10992;48.170;8.596;2023-04-26T06:23:18;10.13;;;5.93;;
21661;SDS011;10992;48.170;8.596;2023-04-26T06:25:45;8.82;;;6.15;;
21661;SDS011;10992;48.170;8.596;2023-04-26T06:28:13;6.90;;;5.72;;
21661;SDS011;10992;48.170;8.596;2023-04-26T06:30:41;10.70;;;6.38;;
21661;SDS011;10992;48.170;8.596;2023-04-26T06:33:08;10.25;;;6.57;;
21661;SDS011;10992;48.170;8.596;2023-04-26T06:35:41;9.82;;;6.50;;
21661;SDS011;10992;48.170;8.596;2023-04-26T06:38:09;10.65;;;6.53;;
21661;SDS011;10992;48.170;8.596;2023-04-26T06:40:38;8.35;;;6.30;;
21661;SDS011;10992;48.170;8.596;2023-04-26T06:43:06;8.93;;;6.05;;
21661;SDS011;10992;48.170;8.596;2023-04-26T06:45:33;8.35;;;6.32;;
21661;SDS011;10992;48.170;8.596;2023-04-26T06:48:00;8.85;;;6.30;;
21661;SDS011;10992;48.170;8.596;2023-04-26T06:50:29;10.07;;;5.60;;
21661;SDS011;10992;48.170;8.596;2023-04-26T06:52:56;7.50;;;5.63;;
21661;SDS011;10992;48.170;8.596;2023-04-26T06:55:23;11.77;;;6.30;;
21661;SDS011;10992;48.170;8.596;2023-04-26T06:57:50;8.95;;;5.68;;
21661;SDS011;10992;48.170;8.596;2023-04-26T07:00:17;8.88;;;5.45;;
21661;SDS011;10992;48.170;8.596;2023-04-26T07:02:44;8.02;;;4.85;;
21661;SDS011;10992;48.170;8.596;2023-04-26T07:05:11;7.50;;;5.45;;
21661;SDS011;10992;48.170;8.596;2023-04-26T07:07:40;9.65;;;4.82;;
21661;SDS011;10992;48.170;8.596;2023-04-26T07:10:07;10.57;;;4.78;;
21661;SDS011;10992;48.170;8.596;2023-04-26T07:12:34;8.90;;;4.85;;
21661;SDS011;10992;48.170;8.596;2023-04-26T07:15:02;5.40;;;3.92;;
21661;SDS011;10992;48.170;8.596;2023-04-26T07:17:31;6.18;;;4.57;;
21661;SDS011;10992;48.170;8.596;2023-04-26T07:19:58;7.68;;;3.97;;
21661;SDS011;10992;48.170;8.596;2023-04-26T07:22:25;6.57;;;4.75;;
21661;SDS011;10992;48.170;8.596;2023-04-26T07:24:52;8.93;;;5.38;;
21661;SDS011;10992;48.170;8.596;2023-04-26T07:27:19;7.55;;;4.90;;
21661;SDS011;10992;48.170;8.596;2023-04-26T07:29:46;6.03;;;3.83;;
21661;SDS011;10992;48.170;8.596;2023-04-26T07:32:13;7.00;;;4.43;;
21661;SDS011;10992;48.170;8.596;2023-04-26T07:34:40;5.70;;;3.40;;
21661;SDS011;10992;48.170;8.596;2023-04-26T07:37:07;7.05;;;4.40;;
21661;SDS011;10992;48.170;8.596;2023-04-26T07:39:34;7.72;;;4.40;;
21661;SDS011;10992;48.170;8.596;2023-04-26T07:42:01;6.60;;;4.10;;
21661;SDS011;10992;48.170;8.596;2023-04-26T07:44:28;9.25;;;4.93;;
21661;SDS011;10992;48.170;8.596;2023-04-26T07:46:55;7.03;;;5.13;;
21661;SDS011;10992;48.170;8.596;2023-04-26T07:49:22;9.10;;;5.43;;
21661;SDS011;10992;48.170;8.596;2023-04-26T07:51:49;7.47;;;5.40;;
21661;SDS011;10992;48.170;8.596;2023-04-26T07:54:17;7.72;;;5.05;;
21661;SDS011;10992;48.170;8.596;2023-04-26T07:56:44;6.55;;;4.88;;
21661;SDS011;10992;48.170;8.596;2023-04-26T07:59:11;9.25;;;4.18;;
21661;SDS011;10992;48.170;8.596;2023-04-26T08:01:37;7.15;;;4.25;;
21661;SDS011;10992;48.170;8.596;2023-04-26T08:04:04;7.82;;;4.28;;
21661;SDS011;10992;48.170;8.596;2023-04-26T08:06:32;8.20;;;4.93;;
21661;SDS011;10992;48.170;8.596;2023-04-26T08:08:59;7.55;;;4.60;;
21661;SDS011;10992;48.170;8.596;2023-04-26T08:11:25;7.88;;;4.30;;
21661;SDS011;10992;48.170;8.596;2023-04-26T08:13:53;5.95;;;3.42;;
21661;SDS011;10992;48.170;8.596;2023-04-26T08:16:23;7.13;;;4.03;;
21661;SDS011;10992;48.170;8.596;2023-04-26T08:18:50;5.70;;;3.75;;
21661;SDS011;10992;48.170;8.596;2023-04-26T08:21:17;6.60;;;3.80;;
21661;SDS011;10992;48.170;8.596;2023-04-26T08:23:44;4.75;;;3.70;;
21661;SDS011;10992;48.170;8.596;2023-04-26T08:26:11;4.80;;;3.42;;
21661;SDS011;10992;48.170;8.596;2023-04-26T08:28:38;6.45;;;3.90;;
21661;SDS011;10992;48.170;8.596;2023-04-26T08:31:05;6.13;;;3.95;;
21661;SDS011;10992;48.170;8.596;2023-04-26T08:33:32;5.85;;;4.30;;
21661;SDS011;10992;48.170;8.596;2023-04-26T08:35:59;7.97;;;4.30;;
21661;SDS011;10992;48.170;8.596;2023-04-26T08:38:28;6.97;;;4.55;;
21661;SDS011;10992;48.170;8.596;2023-04-26T08:40:56;7.13;;;4.35;;
21661;SDS011;10992;48.170;8.596;2023-04-26T08:43:26;7.82;;;4.45;;
21661;SDS011;10992;48.170;8.596;2023-04-26T08:45:54;6.38;;;3.97;;
21661;SDS011;10992;48.170;8.596;2023-04-26T08:48:24;7.00;;;3.75;;
21661;SDS011;10992;48.170;8.596;2023-04-26T08:50:54;6.20;;;4.05;;
21661;SDS011;10992;48.170;8.596;2023-04-26T08:53:21;8.25;;;4.03;;
21661;SDS011;10992;48.170;8.596;2023-04-26T08:55:49;8.65;;;3.78;;
21661;SDS011;10992;48.170;8.596;2023-04-26T08:58:16;7.13;;;3.85;;
21661;SDS011;10992;48.170;8.596;2023-04-26T09:00:44;6.15;;;4.13;;
21661;SDS011;10992;48.170;8.596;2023-04-26T09:03:11;5.45;;;3.08;;
21661;SDS011;10992;48.170;8.596;2023-04-26T09:05:39;4.35;;;3.03;;
21661;SDS011;10992;48.170;8.596;2023-04-26T09:08:14;5.25;;;3.30;;
21661;SDS011;10992;48.170;8.596;2023-04-26T09:10:43;4.28;;;3.03;;
21661;SDS011;10992;48.170;8.596;2023-04-26T09:13:10;4.35;;;3.15;;
21661;SDS011;10992;48.170;8.596;2023-04-26T09:15:37;4.30;;;2.95;;
21661;SDS011;10992;48.170;8.596;2023-04-26T09:18:17;5.45;;;3.40;;
21661;SDS011;10992;48.170;8.596;2023-04-26T09:21:00;6.90;;;2.90;;
21661;SDS011;10992;48.170;8.596;2023-04-26T09:23:32;3.80;;;2.92;;
21661;SDS011;10992;48.170;8.596;2023-04-26T09:26:15;4.43;;;3.35;;
21661;SDS011;10992;48.170;8.596;2023-04-26T09:28:46;3.55;;;2.85;;
21661;SDS011;10992;48.170;8.596;2023-04-26T09:31:21;3.45;;;2.97;;
21661;SDS011;10992;48.170;8.596;2023-04-26T09:34:04;5.50;;;3.20;;
21661;SDS011;10992;48.170;8.596;2023-04-26T09:36:32;5.35;;;2.90;;
21661;SDS011;10992;48.170;8.596;2023-04-26T09:39:11;6.38;;;3.00;;
21661;SDS011;10992;48.170;8.596;2023-04-26T09:41:41;3.60;;;2.35;;
21661;SDS011;10992;48.170;8.596;2023-04-26T09:44:19;6.90;;;2.50;;
21661;SDS011;10992;48.170;8.596;2023-04-26T09:47:01;4.15;;;2.67;;
21661;SDS011;10992;48.170;8.596;2023-04-26T09:49:31;4.80;;;2.63;;
21661;SDS011;10992;48.170;8.596;2023-04-26T09:52:03;4.88;;;2.83;;
21661;SDS011;10992;48.170;8.596;2023-04-26T09:54:38;4.85;;;3.10;;
21661;SDS011;10992;48.170;8.596;2023-04-26T09:57:13;7.55;;;3.60;;
21661;SDS011;10992;48.170;8.596;2023-04-26T09:59:46;6.57;;;3.50;;
21661;SDS011;10992;48.170;8.596;2023-04-26T10:02:22;3.72;;;2.55;;
21661;SDS011;10992;48.170;8.596;2023-04-26T10:04:54;4.43;;;2.80;;
21661;SDS011;10992;48.170;8.596;2023-04-26T10:07:23;3.72;;;2.55;;
21661;SDS011;10992;48.170;8.596;2023-04-26T10:09:51;5.88;;;3.03;;
21661;SDS011;10992;48.170;8.596;2023-04-26T10:12:19;5.28;;;2.95;;
21661;SDS011;10992;48.170;8.596;2023-04-26T10:14:47;5.22;;;3.08;;
21661;SDS011;10992;48.170;8.596;2023-04-26T10:17:13;5.93;;;3.13;;
21661;SDS011;10992;48.170;8.596;2023-04-26T10:19:41;5.65;;;3.10;;
21661;SDS011;10992;48.170;8.596;2023-04-26T10:22:14;5.35;;;2.88;;
21661;SDS011;10992;48.170;8.596;2023-04-26T10:24:45;4.15;;;2.78;;
21661;SDS011;10992;48.170;8.596;2023-04-26T10:27:14;4.00;;;2.90;;
21661;SDS011;10992;48.170;8.596;2023-04-26T10:32:20;6.60;;;2.58;;
21661;SDS011;10992;48.170;8.596;2023-04-26T10:35:09;6.47;;;2.58;;
21661;SDS011;10992;48.170;8.596;2023-04-26T10:40:31;5.53;;;2.75;;
21661;SDS011;10992;48.170;8.596;2023-04-26T10:45:41;6.93;;;2.60;;
21661;SDS011;10992;48.170;8.596;2023-04-26T10:56:56;9.07;;;2.70;;
21661;SDS011;10992;48.170;8.596;2023-04-26T10:59:08;5.30;;;2.80;;
21661;SDS011;10992;48.170;8.596;2023-04-26T11:01:48;6.13;;;2.60;;
21661;SDS011;10992;48.170;8.596;2023-04-26T11:04:18;4.25;;;2.40;;
21661;SDS011;10992;48.170;8.596;2023-04-26T11:06:48;5.50;;;2.60;;
21661;SDS011;10992;48.170;8.596;2023-04-26T11:12:03;4.70;;;2.30;;
21661;SDS011;10992;48.170;8.596;2023-04-26T11:14:37;8.68;;;3.17;;
21661;SDS011;10992;48.170;8.596;2023-04-26T11:17:07;3.28;;;2.17;;
21661;SDS011;10992;48.170;8.596;2023-04-26T11:19:35;3.63;;;2.17;;
21661;SDS011;10992;48.170;8.596;2023-04-26T11:22:02;3.13;;;2.08;;
21661;SDS011;10992;48.170;8.596;2023-04-26T11:24:32;3.03;;;1.85;;
21661;SDS011;10992;48.170;8.596;2023-04-26T11:27:07;3.70;;;2.53;;
21661;SDS011;10992;48.170;8.596;2023-04-26T11:29:35;4.15;;;2.42;;
21661;SDS011;10992;48.170;8.596;2023-04-26T11:32:02;3.88;;;2.05;;
21661;SDS011;10992;48.170;8.596;2023-04-26T11:34:39;4.20;;;2.03;;
21661;SDS011;10992;48.170;8.596;2023-04-26T11:37:07;3.25;;;2.53;;
21661;SDS011;10992;48.170;8.596;2023-04-26T11:39:34;3.67;;;2.30;;
21661;SDS011;10992;48.170;8.596;2023-04-26T11:42:09;4.22;;;2.40;;
21661;SDS011;10992;48.170;8.596;2023-04-26T11:44:38;3.20;;;2.38;;
21661;SDS011;10992;48.170;8.596;2023-04-26T11:47:05;4.70;;;2.53;;
21661;SDS011;10992;48.170;8.596;2023-04-26T11:49:34;6.57;;;2.25;;
21661;SDS011;10992;48.170;8.596;2023-04-26T11:52:03;4.20;;;1.90;;
21661;SDS011;10992;48.170;8.596;2023-04-26T11:54:32;3.50;;;2.20;;
21661;SDS011;10992;48.170;8.596;2023-04-26T11:57:12;2.42;;;1.85;;
21661;SDS011;10992;48.170;8.596;2023-04-26T11:59:43;3.85;;;2.45;;
21661;SDS011;10992;48.170;8.596;2023-04-26T12:02:11;4.35;;;2.10;;
21661;SDS011;10992;48.170;8.596;2023-04-26T12:04:38;4.40;;;2.20;;
21661;SDS011;10992;48.170;8.596;2023-04-26T12:07:06;3.08;;;1.98;;
21661;SDS011;10992;48.170;8.596;2023-04-26T12:09:34;4.05;;;2.13;;
21661;SDS011;10992;48.170;8.596;2023-04-26T12:12:05;5.82;;;2.55;;
21661;SDS011;10992;48.170;8.596;2023-04-26T12:14:33;2.88;;;1.98;;
21661;SDS011;10992;48.170;8.596;2023-04-26T12:17:02;3.88;;;2.22;;
21661;SDS011;10992;48.170;8.596;2023-04-26T12:19:32;2.10;;;1.48;;
21661;SDS011;10992;48.170;8.596;2023-04-26T12:21:59;2.83;;;2.08;;
21661;SDS011;10992;48.170;8.596;2023-04-26T12:24:30;6.53;;;2.83;;
21661;SDS011;10992;48.170;8.596;2023-04-26T12:27:08;4.03;;;2.17;;
21661;SDS011;10992;48.170;8.596;2023-04-26T12:29:46;3.83;;;2.00;;
21661;SDS011;10992;48.170;8.596;2023-04-26T12:32:13;4.63;;;2.33;;
21661;SDS011;10992;48.170;8.596;2023-04-26T12:34:40;5.68;;;2.03;;
21661;SDS011;10992;48.170;8.596;2023-04-26T12:37:07;3.80;;;2.20;;
21661;SDS011;10992;48.170;8.596;2023-04-26T12:39:34;2.65;;;1.85;;
21661;SDS011;10992;48.170;8.596;2023-04-26T12:42:01;3.95;;;1.80;;
21661;SDS011;10992;48.170;8.596;2023-04-26T12:44:29;3.65;;;2.30;;
21661;SDS011;10992;48.170;8.596;2023-04-26T12:46:56;3.05;;;1.80;;
21661;SDS011;10992;48.170;8.596;2023-04-26T12:49:23;5.32;;;1.75;;
21661;SDS011;10992;48.170;8.596;2023-04-26T12:51:50;3.05;;;1.70;;
21661;SDS011;10992;48.170;8.596;2023-04-26T12:54:17;2.42;;;1.52;;
21661;SDS011;10992;48.170;8.596;2023-04-26T12:56:44;3.33;;;1.80;;
21661;SDS011;10992;48.170;8.596;2023-04-26T12:59:11;2.58;;;1.70;;
21661;SDS011;10992;48.170;8.596;2023-04-26T13:01:38;5.32;;;2.35;;
21661;SDS011;10992;48.170;8.596;2023-04-26T13:04:06;3.60;;;2.28;;
21661;SDS011;10992;48.170;8.596;2023-04-26T13:06:34;3.65;;;1.77;;
21661;SDS011;10992;48.170;8.596;2023-04-26T13:09:01;2.65;;;1.40;;
21661;SDS011;10992;48.170;8.596;2023-04-26T13:11:28;3.90;;;1.92;;
21661;SDS011;10992;48.170;8.596;2023-04-26T13:13:55;3.42;;;1.80;;
21661;SDS011;10992;48.170;8.596;2023-04-26T13:16:21;2.50;;;2.00;;
21661;SDS011;10992;48.170;8.596;2023-04-26T13:18:48;2.40;;;1.65;;
21661;SDS011;10992;48.170;8.596;2023-04-26T13:21:15;3.72;;;1.45;;
21661;SDS011;10992;48.170;8.596;2023-04-26T13:23:42;2.75;;;1.73;;
21661;SDS011;10992;48.170;8.596;2023-04-26T13:26:09;3.95;;;2.25;;
21661;SDS011;10992;48.170;8.596;2023-04-26T13:28:36;3.17;;;1.58;;
21661;SDS011;10992;48.170;8.596;2023-04-26T13:31:03;4.35;;;2.50;;
21661;SDS011;10992;48.170;8.596;2023-04-26T13:33:40;3.75;;;2.08;;
21661;SDS011;10992;48.170;8.596;2023-04-26T13:36:07;3.25;;;2.15;;
21661;SDS011;10992;48.170;8.596;2023-04-26T13:38:34;5.55;;;2.22;;
21661;SDS011;10992;48.170;8.596;2023-04-26T13:41:02;3.22;;;1.85;;
21661;SDS011;10992;48.170;8.596;2023-04-26T13:43:29;4.00;;;2.20;;
21661;SDS011;10992;48.170;8.596;2023-04-26T13:45:56;1.67;;;1.40;;
21661;SDS011;10992;48.170;8.596;2023-04-26T13:48:23;2.25;;;1.80;;
21661;SDS011;10992;48.170;8.596;2023-04-26T13:50:50;3.60;;;1.98;;
21661;SDS011;10992;48.170;8.596;2023-04-26T13:53:17;4.32;;;1.83;;
21661;SDS011;10992;48.170;8.596;2023-04-26T13:55:47;3.00;;;1.98;;
21661;SDS011;10992;48.170;8.596;2023-04-26T13:58:14;3.60;;;2.30;;
21661;SDS011;10992;48.170;8.596;2023-04-26T14:00:41;2.90;;;1.90;;
21661;SDS011;10992;48.170;8.596;2023-04-26T14:03:08;4.05;;;2.13;;
21661;SDS011;10992;48.170;8.596;2023-04-26T14:05:36;4.70;;;2.00;;
21661;SDS011;10992;48.170;8.596;2023-04-26T14:08:03;3.20;;;1.77;;
21661;SDS011;10992;48.170;8.596;2023-04-26T14:10:31;3.67;;;1.90;;
21661;SDS011;10992;48.170;8.596;2023-04-26T14:12:58;6.65;;;1.80;;
21661;SDS011;10992;48.170;8.596;2023-04-26T14:15:24;4.45;;;2.05;;
21661;SDS011;10992;48.170;8.596;2023-04-26T14:17:51;3.40;;;2.08;;
21661;SDS011;10992;48.170;8.596;2023-04-26T14:20:18;3.72;;;2.08;;
21661;SDS011;10992;48.170;8.596;2023-04-26T14:22:45;3.63;;;2.20;;
21661;SDS011;10992;48.170;8.596;2023-04-26T14:25:12;3.50;;;2.05;;
21661;SDS011;10992;48.170;8.596;2023-04-26T14:27:39;4.30;;;2.50;;
21661;SDS011;10992;48.170;8.596;2023-04-26T14:30:06;3.05;;;2.10;;
21661;SDS011;10992;48.170;8.596;2023-04-26T14:32:33;3.08;;;1.90;;
21661;SDS011;10992;48.170;8.596;2023-04-26T14:35:00;5.97;;;2.22;;
21661;SDS011;10992;48.170;8.596;2023-04-26T14:37:27;5.40;;;2.20;;
21661;SDS011;10992;48.170;8.596;2023-04-26T14:39:54;6.45;;;2.20;;
21661;SDS011;10992;48.170;8.596;2023-04-26T14:42:21;3.78;;;2.08;;
21661;SDS011;10992;48.170;8.596;2023-04-26T14:44:48;4.88;;;2.05;;
21661;SDS011;10992;48.170;8.596;2023-04-26T14:47:15;3.97;;;1.63;;
21661;SDS011;10992;48.170;8.596;2023-04-26T14:49:42;2.97;;;1.90;;
21661;SDS011;10992;48.170;8.596;2023-04-26T14:52:08;3.25;;;2.08;;
21661;SDS011;10992;48.170;8.596;2023-04-26T14:54:38;3.20;;;1.85;;
21661;SDS011;10992;48.170;8.596;2023-04-26T14:57:05;3.67;;;1.80;;
21661;SDS011;10992;48.170;8.596;2023-04-26T14:59:33;4.63;;;2.30;;
21661;SDS011;10992;48.170;8.596;2023-04-26T15:02:01;3.42;;;1.90;;
21661;SDS011;10992;48.170;8.596;2023-04-26T15:04:28;4.60;;;1.85;;